createdAt,value
2022-10-12T00:01:07.090Z,97238.13
2022-10-12T00:03:36.089Z,97235.47
2022-10-12T00:06:08.101Z,97232.38
2022-10-12T00:08:38.337Z,97230.25
2022-10-12T00:11:11.902Z,97231.66
2022-10-12T00:13:39.996Z,97230.38
2022-10-12T00:16:10.565Z,97233.22
2022-10-12T00:18:39.296Z,97232.81
2022-10-12T00:21:11.078Z,97230.63
2022-10-12T00:23:40.500Z,97230.03
2022-10-12T00:26:13.598Z,97237.97
2022-10-12T00:28:42.022Z,97229.47
2022-10-12T00:31:13.046Z,97235.41
2022-10-12T00:33:41.528Z,97233.63
2022-10-12T00:36:15.976Z,97226.69
2022-10-12T00:38:44.445Z,97228.16
2022-10-12T00:41:16.434Z,97235.53
2022-10-12T00:43:45.819Z,97228.44
2022-10-12T00:46:19.521Z,97234.84
2022-10-12T00:48:53.944Z,97223.66
2022-10-12T00:51:24.281Z,97230.81
2022-10-12T00:53:59.170Z,97229.16
2022-10-12T00:56:34.251Z,97228.78
2022-10-12T00:59:07.917Z,97231.03
2022-10-12T01:01:37.234Z,97235.75
2022-10-12T01:04:07.331Z,97238.41
2022-10-12T01:06:36.257Z,97231.09
2022-10-12T01:09:05.395Z,97232.75
2022-10-12T01:11:34.814Z,97234.63
2022-10-12T01:18:30.376Z,97238.06
2022-10-12T01:21:12.190Z,97229.13
2022-10-12T01:24:44.783Z,97235.94
2022-10-12T01:27:41.437Z,97235.75
2022-10-12T01:30:21.863Z,97232.53
2022-10-12T01:33:15.875Z,97227.00
2022-10-12T01:35:54.923Z,97229.66
2022-10-12T01:38:37.766Z,97233.09
2022-10-12T01:41:14.145Z,97233.34
2022-10-12T01:43:45.894Z,97225.03
2022-10-12T01:46:47.730Z,97231.97
2022-10-12T01:49:20.134Z,97220.41
2022-10-12T01:52:22.240Z,97217.41
2022-10-12T01:55:04.531Z,97224.56
2022-10-12T01:57:46.108Z,97223.16
2022-10-12T02:00:17.226Z,97226.44
2022-10-12T02:03:00.173Z,97217.28
2022-10-12T02:05:38.969Z,97215.28
2022-10-12T02:08:18.932Z,97212.09
2022-10-12T02:10:55.135Z,97212.31
2022-10-12T02:13:26.243Z,97216.53
2022-10-12T02:15:55.499Z,97213.28
2022-10-12T02:18:26.192Z,97211.69
2022-10-12T02:20:57.305Z,97208.16
2022-10-12T02:23:26.080Z,97209.03
2022-10-12T02:25:57.098Z,97205.72
2022-10-12T02:28:29.855Z,97203.66
2022-10-12T02:31:05.042Z,97216.47
2022-10-12T02:33:42.770Z,97211.56
2022-10-12T02:36:17.483Z,97203.16
2022-10-12T02:38:54.321Z,97207.25
2022-10-12T02:41:28.838Z,97206.84
2022-10-12T02:44:01.563Z,97205.81
2022-10-12T02:46:32.765Z,97205.00
2022-10-12T02:49:05.430Z,97208.25
2022-10-12T02:51:35.249Z,97196.63
2022-10-12T02:54:04.407Z,97194.19
2022-10-12T02:56:32.513Z,97196.25
2022-10-12T02:59:00.680Z,97197.66
2022-10-12T03:01:28.825Z,97192.53
2022-10-12T03:03:56.995Z,97201.88
2022-10-12T03:06:27.191Z,97198.22
2022-10-12T03:08:57.125Z,97194.97
2022-10-12T03:11:25.471Z,97198.03
2022-10-12T03:13:53.713Z,97197.63
2022-10-12T03:16:22.102Z,97200.44
2022-10-12T03:18:50.323Z,97201.06
2022-10-12T03:21:18.762Z,97207.09
2022-10-12T03:23:48.218Z,97200.34
2022-10-12T03:26:16.379Z,97202.34
2022-10-12T03:28:44.464Z,97198.94
2022-10-12T03:31:12.597Z,97197.06
2022-10-12T03:33:40.697Z,97197.47
2022-10-12T03:36:10.613Z,97198.22
2022-10-12T03:38:38.681Z,97192.91
2022-10-12T03:41:08.290Z,97185.75
2022-10-12T03:43:36.698Z,97190.88
2022-10-12T03:46:05.030Z,97195.13
2022-10-12T03:48:33.196Z,97197.63
2022-10-12T03:51:01.250Z,97200.84
2022-10-12T03:53:29.574Z,97199.88
2022-10-12T03:55:57.590Z,97200.69
2022-10-12T03:58:27.087Z,97197.47
2022-10-12T04:00:55.895Z,97204.38
2022-10-12T04:03:23.936Z,97198.81
2022-10-12T04:05:55.831Z,97193.69
2022-10-12T04:08:24.466Z,97198.94
2022-10-12T04:10:52.501Z,97196.69
2022-10-12T04:13:21.276Z,97192.22
2022-10-12T04:15:50.657Z,97198.72
2022-10-12T04:18:18.754Z,97200.75
2022-10-12T04:20:49.978Z,97204.97
2022-10-12T04:23:18.129Z,97198.63
2022-10-12T04:25:46.223Z,97205.94
2022-10-12T04:28:14.295Z,97206.75
2022-10-12T04:30:42.316Z,97208.38
2022-10-12T04:33:11.990Z,97207.53
2022-10-12T04:35:40.056Z,97201.88
2022-10-12T04:38:08.067Z,97207.38
2022-10-12T04:40:36.092Z,97208.78
2022-10-12T04:43:04.196Z,97209.81
2022-10-12T04:45:32.353Z,97207.75
2022-10-12T04:48:00.374Z,97207.38
2022-10-12T04:50:30.247Z,97213.06
2022-10-12T04:52:58.646Z,97208.72
2022-10-12T04:55:27.594Z,97211.59
2022-10-12T04:57:55.698Z,97212.47
2022-10-12T05:00:23.833Z,97212.06
2022-10-12T05:02:51.878Z,97225.66
2022-10-12T05:05:19.976Z,97218.91
2022-10-12T05:07:49.527Z,97218.06
2022-10-12T05:10:17.821Z,97216.47
2022-10-12T05:12:45.879Z,97216.47
2022-10-12T05:15:13.914Z,97220.72
2022-10-12T05:17:41.990Z,97219.50
2022-10-12T05:20:12.470Z,97211.56
2022-10-12T05:22:40.591Z,97215.00
2022-10-12T05:25:11.107Z,97217.88
2022-10-12T05:27:39.544Z,97215.28
2022-10-12T05:30:09.508Z,97213.28
2022-10-12T05:32:37.870Z,97213.66
2022-10-12T05:35:07.362Z,97209.56
2022-10-12T05:37:35.906Z,97210.13
2022-10-12T05:40:04.959Z,97210.13
2022-10-12T05:42:35.881Z,97210.31
2022-10-12T05:45:05.115Z,97214.84
2022-10-12T05:47:33.290Z,97202.16
2022-10-12T05:50:01.371Z,97213.53
2022-10-12T05:52:29.427Z,97224.53
2022-10-12T05:54:57.498Z,97216.94
2022-10-12T05:57:25.656Z,97222.88
2022-10-12T05:59:55.233Z,97221.28
2022-10-12T06:02:23.298Z,97226.63
2022-10-12T06:04:51.321Z,97222.53
2022-10-12T06:07:19.338Z,97222.31
2022-10-12T06:09:47.634Z,97227.25
2022-10-12T06:12:16.270Z,97225.22
2022-10-12T06:14:44.404Z,97225.94
2022-10-12T06:17:13.800Z,97223.06
2022-10-12T06:19:41.844Z,97228.94
2022-10-12T06:22:09.907Z,97225.03
2022-10-12T06:24:38.382Z,97228.72
2022-10-12T06:27:06.430Z,97235.44
2022-10-12T06:29:35.818Z,97230.94
2022-10-12T06:32:03.856Z,97237.44
2022-10-12T06:34:33.948Z,97238.84
2022-10-12T06:37:02.359Z,97237.78
2022-10-12T06:39:30.468Z,97239.19
2022-10-12T06:41:59.035Z,97238.41
2022-10-12T06:44:29.718Z,97245.53
2022-10-12T06:46:57.865Z,97239.81
2022-10-12T06:49:25.995Z,97238.97
2022-10-12T06:51:55.338Z,97245.69
2022-10-12T06:54:23.406Z,97239.13
2022-10-12T06:56:54.318Z,97244.44
2022-10-12T06:59:26.023Z,97243.84
2022-10-12T07:01:55.399Z,97238.91
2022-10-12T07:04:23.646Z,97246.88
2022-10-12T07:06:51.659Z,97243.22
2022-10-12T07:09:21.142Z,97244.81
2022-10-12T07:11:49.258Z,97236.66
2022-10-12T07:14:17.628Z,97248.25
2022-10-12T07:16:45.682Z,97243.34
2022-10-12T07:19:14.031Z,97247.41
2022-10-12T07:21:42.173Z,97245.34
2022-10-12T07:24:13.021Z,97244.09
2022-10-12T07:26:42.377Z,97243.28
2022-10-12T07:29:10.446Z,97244.47
2022-10-12T07:31:38.902Z,97244.81
2022-10-12T07:34:06.974Z,97245.66
2022-10-12T07:36:57.624Z,97242.16
2022-10-12T07:39:24.718Z,97244.81
2022-10-12T07:41:55.140Z,97234.38
2022-10-12T07:44:24.447Z,97240.88
2022-10-12T07:46:53.580Z,97241.22
2022-10-12T07:49:23.179Z,97237.09
2022-10-12T07:51:51.211Z,97239.53
2022-10-12T07:54:22.618Z,97241.75
2022-10-12T07:56:55.024Z,97241.75
2022-10-12T07:59:23.043Z,97246.66
2022-10-12T08:01:51.248Z,97250.31
2022-10-12T08:04:19.279Z,97250.09
2022-10-12T08:06:47.306Z,97258.88
2022-10-12T08:09:15.467Z,97254.63
2022-10-12T08:11:43.622Z,97256.44
2022-10-12T08:14:17.717Z,97256.81
2022-10-12T08:16:46.704Z,97254.88
2022-10-12T08:19:15.056Z,97250.41
2022-10-12T08:21:43.419Z,97253.28
2022-10-12T08:24:12.521Z,97253.84
2022-10-12T08:26:40.697Z,97257.09
2022-10-12T08:29:35.509Z,97254.44
2022-10-12T08:32:03.607Z,97257.84
2022-10-12T08:34:32.146Z,97265.03
2022-10-12T08:37:00.417Z,97258.13
2022-10-12T08:39:28.558Z,97262.53
2022-10-12T08:42:12.243Z,97257.38
2022-10-12T08:44:56.870Z,97258.84
2022-10-12T08:47:38.696Z,97249.97
2022-10-12T08:50:15.826Z,97254.53
2022-10-12T08:52:54.728Z,97249.22
2022-10-12T08:55:35.116Z,97243.91
2022-10-12T08:58:04.165Z,97249.44
2022-10-12T09:00:35.640Z,97234.13
2022-10-12T09:03:15.656Z,97240.47
2022-10-12T09:05:51.132Z,97242.88
2022-10-12T09:08:35.285Z,97234.84
2022-10-12T09:11:24.901Z,97239.00
2022-10-12T09:14:01.957Z,97246.47
2022-10-12T09:16:36.743Z,97242.00
2022-10-12T09:19:13.931Z,97243.38
2022-10-12T09:21:43.308Z,97246.97
2022-10-12T09:24:18.070Z,97249.19
2022-10-12T09:26:51.135Z,97244.81
2022-10-12T09:29:26.988Z,97254.84
2022-10-12T09:32:36.638Z,97256.56
2022-10-12T09:35:08.020Z,97257.94
2022-10-12T09:37:37.142Z,97257.72
2022-10-12T09:40:06.977Z,97260.16
2022-10-12T09:42:35.426Z,97269.38
2022-10-12T09:45:15.692Z,97270.75
2022-10-12T09:48:14.900Z,97274.44
2022-10-12T09:50:48.874Z,97274.91
2022-10-12T09:53:28.640Z,97261.75
2022-10-12T09:56:04.899Z,97265.16
2022-10-12T09:58:44.120Z,97261.94
2022-10-12T10:01:21.537Z,97253.25
2022-10-12T10:04:09.645Z,97267.13
2022-10-12T10:06:38.835Z,97257.81
2022-10-12T10:09:06.963Z,97253.91
2022-10-12T10:11:35.531Z,97257.16
2022-10-12T10:14:03.749Z,97250.88
2022-10-12T10:16:32.319Z,97260.91
2022-10-12T10:19:02.993Z,97255.56
2022-10-12T10:21:34.865Z,97253.69
2022-10-12T10:24:05.384Z,97246.53
2022-10-12T10:26:54.620Z,97255.34
2022-10-12T10:29:35.995Z,97256.50
2022-10-12T10:32:24.377Z,97251.97
2022-10-12T10:35:06.346Z,97248.88
2022-10-12T10:37:34.786Z,97244.16
2022-10-12T10:40:03.942Z,97244.84
2022-10-12T10:42:34.688Z,97250.28
2022-10-12T10:45:07.009Z,97249.50
2022-10-12T10:47:43.626Z,97248.34
2022-10-12T10:50:27.642Z,97255.38
2022-10-12T10:52:58.553Z,97249.72
2022-10-12T10:55:42.118Z,97246.50
2022-10-12T10:58:25.550Z,97246.59
2022-10-12T11:01:02.021Z,97249.38
2022-10-12T11:03:38.491Z,97253.66
2022-10-12T11:06:24.371Z,97253.28
2022-10-12T11:09:03.761Z,97252.59
2022-10-12T11:11:37.248Z,97250.50
2022-10-12T11:14:15.478Z,97242.53
2022-10-12T11:16:51.405Z,97246.22
2022-10-12T11:19:31.259Z,97245.09
2022-10-12T11:22:05.743Z,97249.13
2022-10-12T11:24:41.734Z,97248.47
2022-10-12T11:27:16.389Z,97246.69
2022-10-12T11:29:44.538Z,97238.34
2022-10-12T11:32:23.443Z,97237.44
2022-10-12T11:34:57.061Z,97237.53
2022-10-12T11:37:33.515Z,97231.19
2022-10-12T11:40:03.777Z,97227.69
2022-10-12T11:42:34.581Z,97224.34
2022-10-12T11:45:14.810Z,97228.00
2022-10-12T11:47:47.417Z,97225.81
2022-10-12T11:50:29.618Z,97209.38
2022-10-12T11:53:03.087Z,97214.09
2022-10-12T11:55:44.931Z,97207.72
2022-10-12T11:58:31.558Z,97213.66
2022-10-12T12:01:29.434Z,97211.81
2022-10-12T12:04:41.296Z,97216.97
2022-10-12T12:07:44.774Z,97210.13
2022-10-12T12:11:07.524Z,97205.38
2022-10-12T12:13:35.589Z,97204.19
2022-10-12T12:16:44.682Z,97202.66
2022-10-12T12:19:40.513Z,97186.69
2022-10-12T12:22:30.053Z,97184.03
2022-10-12T12:25:14.981Z,97181.69
2022-10-12T12:27:48.006Z,97184.94
2022-10-12T12:30:40.679Z,97180.75
2022-10-12T12:33:31.075Z,97183.13
2022-10-12T12:36:01.536Z,97181.06
2022-10-12T12:38:33.421Z,97174.28
2022-10-12T12:41:08.928Z,97182.50
2022-10-12T12:43:54.787Z,97178.81
2022-10-12T12:46:25.470Z,97170.81
2022-10-12T12:49:02.892Z,97172.53
2022-10-12T12:51:41.757Z,97172.88
2022-10-12T12:54:21.945Z,97167.06
2022-10-12T12:57:34.898Z,97165.22
2022-10-12T13:00:21.156Z,97166.34
2022-10-12T13:03:26.346Z,97162.69
2022-10-12T13:06:51.955Z,97162.44
2022-10-12T13:09:44.918Z,97158.84
2022-10-12T13:12:41.987Z,97162.38
2022-10-12T13:15:28.455Z,97161.22
2022-10-12T13:18:47.578Z,97155.28
2022-10-12T13:21:22.694Z,97144.44
2022-10-12T13:24:02.978Z,97152.03
2022-10-12T13:26:32.382Z,97151.69
2022-10-12T13:29:02.356Z,97152.03
2022-10-12T13:31:38.714Z,97151.78
2022-10-12T13:34:16.643Z,97147.31
2022-10-12T13:36:53.878Z,97138.03
2022-10-12T13:39:23.381Z,97137.69
2022-10-12T13:41:55.334Z,97141.13
2022-10-12T13:44:26.892Z,97129.63
2022-10-12T13:46:59.207Z,97134.91
2022-10-12T13:49:31.463Z,97137.88
2022-10-12T13:52:03.210Z,97139.41
2022-10-12T13:54:39.352Z,97142.16
2022-10-12T13:57:19.968Z,97134.72
2022-10-12T13:59:57.643Z,97128.75
2022-10-12T14:02:29.855Z,97137.56
2022-10-12T14:04:59.578Z,97131.84
2022-10-12T14:07:33.023Z,97133.13
2022-10-12T14:10:07.004Z,97133.13
2022-10-12T14:12:37.290Z,97133.78
2022-10-12T14:15:07.823Z,97128.69
2022-10-12T14:17:45.317Z,97128.63
2022-10-12T14:20:27.437Z,97125.66
2022-10-12T14:22:58.295Z,97125.06
2022-10-12T14:25:28.670Z,97116.03
2022-10-12T14:27:59.203Z,97127.56
2022-10-12T14:30:31.740Z,97117.50
2022-10-12T14:33:13.766Z,97129.28
2022-10-12T14:35:46.483Z,97130.06
2022-10-12T14:38:40.677Z,97125.56
2022-10-12T14:41:37.284Z,97117.16
2022-10-12T14:44:13.285Z,97124.91
2022-10-12T14:46:48.262Z,97120.69
2022-10-12T14:49:21.327Z,97113.28
2022-10-12T14:51:50.712Z,97109.25
2022-10-12T14:54:18.842Z,97114.59
2022-10-12T14:56:46.942Z,97118.03
2022-10-12T14:59:14.999Z,97116.97
2022-10-12T15:01:47.591Z,97115.13
2022-10-12T15:04:20.482Z,97113.19
2022-10-12T15:06:50.944Z,97114.00
2022-10-12T15:09:19.281Z,97111.03
2022-10-12T15:11:47.341Z,97112.34
2022-10-12T15:14:15.397Z,97111.28
2022-10-12T15:16:43.515Z,97106.19
2022-10-12T15:19:11.522Z,97118.44
2022-10-12T15:21:40.921Z,97116.53
2022-10-12T15:24:16.259Z,97115.13
2022-10-12T15:26:44.321Z,97116.19
2022-10-12T15:29:12.563Z,97111.94
2022-10-12T15:31:40.637Z,97110.72
2022-10-12T15:34:12.751Z,97111.50
2022-10-12T15:36:42.420Z,97110.34
2022-10-12T15:39:10.597Z,97114.31
2022-10-12T15:41:38.590Z,97113.75
2022-10-12T15:44:07.403Z,97121.16
2022-10-12T15:46:35.429Z,97109.88
2022-10-12T15:49:03.470Z,97110.09
2022-10-12T15:51:32.717Z,97107.44
2022-10-12T15:54:02.055Z,97111.41
2022-10-12T15:56:30.238Z,97099.38
2022-10-12T15:58:58.336Z,97102.78
2022-10-12T16:01:26.538Z,97098.72
2022-10-12T16:03:54.599Z,97094.69
2022-10-12T16:06:22.963Z,97095.66
2022-10-12T16:08:51.003Z,97096.97
2022-10-12T16:11:21.080Z,97085.97
2022-10-12T16:13:55.437Z,97093.63
2022-10-12T16:16:24.763Z,97103.94
2022-10-12T16:18:53.958Z,97100.94
2022-10-12T16:21:22.472Z,97096.34
2022-10-12T16:23:50.585Z,97100.28
2022-10-12T16:26:20.114Z,97100.78
2022-10-12T16:28:48.332Z,97101.25
2022-10-12T16:31:18.013Z,97098.84
2022-10-12T16:33:46.459Z,97105.09
2022-10-12T16:36:17.250Z,97100.72
2022-10-12T16:38:45.534Z,97109.09
2022-10-12T16:41:16.171Z,97101.56
2022-10-12T16:43:46.184Z,97103.88
2022-10-12T16:46:14.249Z,97112.56
2022-10-12T16:48:42.327Z,97114.09
2022-10-12T16:51:12.489Z,97115.38
2022-10-12T16:53:42.279Z,97118.84
2022-10-12T16:56:10.996Z,97120.16
2022-10-12T16:58:39.054Z,97114.84
2022-10-12T17:01:13.766Z,97122.84
2022-10-12T17:03:41.910Z,97117.78
2022-10-12T17:06:10.836Z,97108.53
2022-10-12T17:08:39.872Z,97110.22
2022-10-12T17:11:09.605Z,97107.84
2022-10-12T17:13:39.355Z,97116.94
2022-10-12T17:16:34.876Z,97113.72
2022-10-12T17:19:04.500Z,97116.72
2022-10-12T17:21:32.686Z,97118.75
2022-10-12T17:24:02.215Z,97104.09
2022-10-12T17:26:30.750Z,97115.78
2022-10-12T17:28:58.768Z,97111.03
2022-10-12T17:31:27.173Z,97119.69
2022-10-12T17:33:55.182Z,97115.75
2022-10-12T17:36:28.256Z,97114.25
2022-10-12T17:38:59.454Z,97115.41
2022-10-12T17:41:29.738Z,97117.28
2022-10-12T17:43:58.671Z,97116.13
2022-10-12T17:46:26.762Z,97119.44
2022-10-12T17:48:55.115Z,97120.16
2022-10-12T17:51:24.630Z,97117.84
2022-10-12T17:53:53.523Z,97128.69
2022-10-12T17:56:21.778Z,97130.72
2022-10-12T17:58:55.285Z,97124.97
2022-10-12T18:01:24.729Z,97134.22
2022-10-12T18:03:55.239Z,97126.69
2022-10-12T18:06:25.623Z,97130.16
2022-10-12T18:08:54.985Z,97139.13
2022-10-12T18:11:24.395Z,97139.56
2022-10-12T18:13:55.417Z,97137.25
2022-10-12T18:16:26.126Z,97130.38
2022-10-12T18:18:55.014Z,97131.72
2022-10-12T18:21:26.719Z,97136.06
2022-10-12T18:23:55.665Z,97130.84
2022-10-12T18:26:24.910Z,97136.13
2022-10-12T18:28:55.536Z,97138.06
2022-10-12T18:31:26.378Z,97147.03
2022-10-12T18:33:56.450Z,97148.09
2022-10-12T18:36:27.257Z,97151.19
2022-10-12T18:38:55.993Z,97154.69
2022-10-12T18:41:25.783Z,97151.91
2022-10-12T18:43:57.892Z,97145.88
2022-10-12T18:46:28.969Z,97135.13
2022-10-12T18:48:57.657Z,97136.75
2022-10-12T18:51:30.120Z,97137.78
2022-10-12T18:53:59.753Z,97139.34
2022-10-12T18:56:29.183Z,97146.84
2022-10-12T18:58:59.623Z,97145.59
2022-10-12T19:01:30.559Z,97150.91
2022-10-12T19:04:01.102Z,97148.91
2022-10-12T19:06:39.465Z,97149.31
2022-10-12T19:09:10.055Z,97153.63
2022-10-12T19:11:38.128Z,97146.47
2022-10-12T19:14:08.591Z,97149.56
2022-10-12T19:16:37.282Z,97147.34
2022-10-12T19:19:09.445Z,97156.56
2022-10-12T19:21:40.623Z,97153.53
2022-10-12T19:24:12.498Z,97158.69
2022-10-12T19:26:41.855Z,97158.09
2022-10-12T19:29:09.913Z,97148.50
2022-10-12T19:31:40.813Z,97145.06
2022-10-12T19:34:11.665Z,97147.94
2022-10-12T19:36:42.582Z,97147.75
2022-10-12T19:39:15.202Z,97141.47
2022-10-12T19:41:43.303Z,97136.44
2022-10-12T19:44:12.498Z,97142.53
2022-10-12T19:46:42.555Z,97144.75
2022-10-12T19:49:13.981Z,97151.31
2022-10-12T19:51:44.942Z,97152.47
2022-10-12T19:54:15.706Z,97145.13
2022-10-12T19:56:43.754Z,97143.78
2022-10-12T19:59:11.818Z,97143.00
2022-10-12T20:01:40.995Z,97135.47
2022-10-12T20:04:11.895Z,97140.56
2022-10-12T20:06:40.463Z,97142.53
2022-10-12T20:09:10.695Z,97140.84
2022-10-12T20:11:39.072Z,97149.84
2022-10-12T20:14:07.865Z,97160.63
2022-10-12T20:16:37.298Z,97157.56
2022-10-12T20:19:06.964Z,97152.91
2022-10-12T20:21:36.402Z,97162.47
2022-10-12T20:24:04.986Z,97156.38
2022-10-12T20:26:34.338Z,97161.06
2022-10-12T20:29:02.708Z,97154.59
2022-10-12T20:31:30.779Z,97159.53
2022-10-12T20:33:58.839Z,97157.97
2022-10-12T20:36:29.832Z,97150.25
2022-10-12T20:38:59.591Z,97153.03
2022-10-12T20:41:28.492Z,97145.91
2022-10-12T20:43:59.770Z,97143.09
2022-10-12T20:46:29.539Z,97138.63
2022-10-12T20:49:00.025Z,97137.66
2022-10-12T20:51:30.371Z,97141.50
2022-10-12T20:54:00.680Z,97142.13
2022-10-12T20:56:29.712Z,97147.00
2022-10-12T20:58:59.479Z,97141.28
2022-10-12T21:01:28.822Z,97148.19
2022-10-12T21:03:57.350Z,97138.34
2022-10-12T21:06:25.488Z,97139.88
2022-10-12T21:08:55.769Z,97132.75
2022-10-12T21:11:24.732Z,97128.94
2022-10-12T21:13:52.818Z,97141.53
2022-10-12T21:16:22.217Z,97134.59
2022-10-12T21:18:54.258Z,97138.50
2022-10-12T21:21:23.048Z,97138.28
2022-10-12T21:23:56.311Z,97135.78
2022-10-12T21:26:27.828Z,97133.81
2022-10-12T21:28:56.196Z,97137.44
2022-10-12T21:31:30.957Z,97128.88
2022-10-12T21:34:01.287Z,97132.91
2022-10-12T21:36:31.009Z,97131.16
2022-10-12T21:38:59.151Z,97131.28
2022-10-12T21:41:30.056Z,97141.81
2022-10-12T21:43:59.130Z,97145.13
2022-10-12T21:46:31.359Z,97139.78
2022-10-12T21:49:01.521Z,97130.66
2022-10-12T21:51:32.244Z,97136.94
2022-10-12T21:54:00.309Z,97132.34
2022-10-12T21:56:30.963Z,97128.72
2022-10-12T21:59:01.309Z,97132.16
2022-10-12T22:01:34.502Z,97135.56
2022-10-12T22:04:06.486Z,97134.16
2022-10-12T22:06:35.735Z,97124.00
2022-10-12T22:09:08.979Z,97121.34
2022-10-12T22:11:38.285Z,97123.41
2022-10-12T22:14:12.856Z,97122.25
2022-10-12T22:16:44.091Z,97115.09
2022-10-12T22:19:18.526Z,97111.03
2022-10-12T22:21:47.638Z,97116.56
2022-10-12T22:24:16.111Z,97122.53
2022-10-12T22:26:44.489Z,97122.72
2022-10-12T22:29:12.567Z,97125.16
2022-10-12T22:31:44.255Z,97121.34
2022-10-12T22:34:12.967Z,97118.91
2022-10-12T22:36:41.054Z,97112.38
2022-10-12T22:39:09.482Z,97121.34
2022-10-12T22:41:37.583Z,97111.31
2022-10-12T22:44:05.838Z,97112.97
2022-10-12T22:46:33.908Z,97119.66
2022-10-12T22:49:04.175Z,97117.22
2022-10-12T22:51:34.917Z,97113.53
2022-10-12T22:54:04.069Z,97116.81
2022-10-12T22:56:32.670Z,97123.09
2022-10-12T22:59:03.403Z,97114.38
2022-10-12T23:01:31.430Z,97118.78
2022-10-12T23:03:59.596Z,97117.81
2022-10-12T23:06:29.159Z,97113.75
2022-10-12T23:08:57.278Z,97105.47
2022-10-12T23:11:27.682Z,97096.06
2022-10-12T23:13:57.379Z,97101.41
2022-10-12T23:16:28.393Z,97098.91
2022-10-12T23:18:59.569Z,97092.28
2022-10-12T23:21:30.970Z,97094.72
2022-10-12T23:24:00.321Z,97100.63
2022-10-12T23:26:29.622Z,97096.13
2022-10-12T23:28:58.243Z,97096.50
2022-10-12T23:31:30.485Z,97098.34
2022-10-12T23:34:00.099Z,97100.59
2022-10-12T23:36:30.210Z,97097.72
2022-10-12T23:39:01.182Z,97100.09
2022-10-12T23:41:29.208Z,97102.19
2022-10-12T23:43:57.262Z,97104.22
2022-10-12T23:46:25.483Z,97111.53
2022-10-12T23:48:55.068Z,97106.63
2022-10-12T23:51:23.346Z,97121.84
2022-10-12T23:53:52.846Z,97123.50
2022-10-12T23:56:20.973Z,97126.94
2022-10-12T23:58:49.036Z,97128.94
